sensor_id;sensor_type;location;lat;lon;timestamp;pressure;altitude;pressure_sealevel;temperature;humidity
13029;BME280;6581;42.662;23.402;2023-07-13T00:00:20;95571.16;;;23.60;61.42
13029;BME280;6581;42.662;23.402;2023-07-13T00:02:47;95569.66;;;23.59;62.01
13029;BME280;6581;42.662;23.402;2023-07-13T00:05:16;95572.91;;;23.54;62.04
13029;BME280;6581;42.662;23.402;2023-07-13T00:07:43;95566.00;;;23.53;62.05
13029;BME280;6581;42.662;23.402;2023-07-13T00:10:12;95566.31;;;23.55;61.79
13029;BME280;6581;42.662;23.402;2023-07-13T00:12:39;95565.66;;;23.51;61.55
13029;BME280;6581;42.662;23.402;2023-07-13T00:15:10;95569.13;;;23.52;62.21
13029;BME280;6581;42.662;23.402;2023-07-13T00:17:39;95565.47;;;23.46;62.51
13029;BME280;6581;42.662;23.402;2023-07-13T00:20:07;95562.41;;;23.43;61.78
13029;BME280;6581;42.662;23.402;2023-07-13T00:22:36;95563.28;;;23.53;60.88
13029;BME280;6581;42.662;23.402;2023-07-13T00:25:04;95560.81;;;23.46;61.36
13029;BME280;6581;42.662;23.402;2023-07-13T00:27:32;95554.53;;;23.49;61.35
13029;BME280;6581;42.662;23.402;2023-07-13T00:29:59;95555.72;;;23.48;61.89
13029;BME280;6581;42.662;23.402;2023-07-13T00:32:26;95555.59;;;23.52;61.62
13029;BME280;6581;42.662;23.402;2023-07-13T00:34:53;95544.47;;;23.50;61.42
13029;BME280;6581;42.662;23.402;2023-07-13T00:37:20;95542.19;;;23.48;61.74
13029;BME280;6581;42.662;23.402;2023-07-13T00:39:49;95547.59;;;23.48;61.90
13029;BME280;6581;42.662;23.402;2023-07-13T00:42:16;95545.78;;;23.45;62.12
13029;BME280;6581;42.662;23.402;2023-07-13T00:45:01;95553.63;;;23.39;62.69
13029;BME280;6581;42.662;23.402;2023-07-13T00:47:28;95557.75;;;23.31;63.87
13029;BME280;6581;42.662;23.402;2023-07-13T00:49:55;95558.41;;;23.23;63.99
13029;BME280;6581;42.662;23.402;2023-07-13T00:52:23;95549.84;;;23.24;64.60
13029;BME280;6581;42.662;23.402;2023-07-13T00:54:52;95554.72;;;23.17;67.09
13029;BME280;6581;42.662;23.402;2023-07-13T00:57:20;95541.00;;;23.11;67.02
13029;BME280;6581;42.662;23.402;2023-07-13T00:59:52;95537.22;;;23.09;68.02
13029;BME280;6581;42.662;23.402;2023-07-13T01:02:21;95539.28;;;23.05;69.01
13029;BME280;6581;42.662;23.402;2023-07-13T01:04:49;95534.19;;;23.07;68.97
13029;BME280;6581;42.662;23.402;2023-07-13T01:07:16;95537.88;;;23.00;69.48
13029;BME280;6581;42.662;23.402;2023-07-13T01:09:45;95536.00;;;22.84;70.00
13029;BME280;6581;42.662;23.402;2023-07-13T01:12:13;95534.47;;;22.83;70.49
13029;BME280;6581;42.662;23.402;2023-07-13T01:14:41;95535.88;;;22.75;71.44
13029;BME280;6581;42.662;23.402;2023-07-13T01:17:09;95539.13;;;22.70;72.53
13029;BME280;6581;42.662;23.402;2023-07-13T01:19:38;95529.16;;;22.67;73.73
13029;BME280;6581;42.662;23.402;2023-07-13T01:22:10;95543.50;;;22.64;74.50
13029;BME280;6581;42.662;23.402;2023-07-13T01:24:38;95537.22;;;22.54;75.46
13029;BME280;6581;42.662;23.402;2023-07-13T01:27:06;95528.25;;;22.45;75.05
13029;BME280;6581;42.662;23.402;2023-07-13T01:29:35;95529.97;;;22.51;72.06
13029;BME280;6581;42.662;23.402;2023-07-13T01:32:08;95536.53;;;22.50;70.27
13029;BME280;6581;42.662;23.402;2023-07-13T01:34:36;95537.31;;;22.51;72.16
13029;BME280;6581;42.662;23.402;2023-07-13T01:37:04;95534.19;;;22.52;74.39
13029;BME280;6581;42.662;23.402;2023-07-13T01:39:33;95539.47;;;22.56;73.47
13029;BME280;6581;42.662;23.402;2023-07-13T01:42:00;95543.06;;;22.53;73.33
13029;BME280;6581;42.662;23.402;2023-07-13T01:44:27;95539.03;;;22.45;73.10
13029;BME280;6581;42.662;23.402;2023-07-13T01:46:54;95535.69;;;22.41;73.05
13029;BME280;6581;42.662;23.402;2023-07-13T01:49:21;95531.78;;;22.42;73.60
13029;BME280;6581;42.662;23.402;2023-07-13T01:51:49;95532.53;;;22.42;74.45
13029;BME280;6581;42.662;23.402;2023-07-13T01:54:16;95532.28;;;22.37;73.33
13029;BME280;6581;42.662;23.402;2023-07-13T01:56:44;95529.72;;;22.33;73.02
13029;BME280;6581;42.662;23.402;2023-07-13T01:59:11;95525.81;;;22.34;73.03
13029;BME280;6581;42.662;23.402;2023-07-13T02:01:38;95529.72;;;22.33;72.02
13029;BME280;6581;42.662;23.402;2023-07-13T02:04:05;95532.16;;;22.28;72.64
13029;BME280;6581;42.662;23.402;2023-07-13T02:06:32;95544.38;;;22.32;72.85
13029;BME280;6581;42.662;23.402;2023-07-13T02:09:00;95538.84;;;22.23;73.57
13029;BME280;6581;42.662;23.402;2023-07-13T02:11:27;95544.22;;;22.23;74.05
13029;BME280;6581;42.662;23.402;2023-07-13T02:14:00;95541.97;;;22.22;74.69
13029;BME280;6581;42.662;23.402;2023-07-13T02:16:27;95540.56;;;22.17;75.38
13029;BME280;6581;42.662;23.402;2023-07-13T02:18:54;95537.53;;;22.15;75.01
13029;BME280;6581;42.662;23.402;2023-07-13T02:21:22;95533.66;;;22.16;75.15
13029;BME280;6581;42.662;23.402;2023-07-13T02:23:51;95534.91;;;22.12;75.82
13029;BME280;6581;42.662;23.402;2023-07-13T02:26:19;95537.63;;;22.12;75.48
13029;BME280;6581;42.662;23.402;2023-07-13T02:28:47;95546.13;;;22.10;76.98
13029;BME280;6581;42.662;23.402;2023-07-13T02:31:16;95548.16;;;22.06;75.29
13029;BME280;6581;42.662;23.402;2023-07-13T02:33:45;95550.97;;;22.02;77.28
13029;BME280;6581;42.662;23.402;2023-07-13T02:36:13;95551.88;;;22.12;75.74
13029;BME280;6581;42.662;23.402;2023-07-13T02:38:43;95548.16;;;22.06;75.66
13029;BME280;6581;42.662;23.402;2023-07-13T02:41:10;95554.06;;;22.01;76.71
13029;BME280;6581;42.662;23.402;2023-07-13T02:43:40;95554.41;;;22.03;77.32
13029;BME280;6581;42.662;23.402;2023-07-13T02:46:08;95554.84;;;22.01;77.89
13029;BME280;6581;42.662;23.402;2023-07-13T02:48:38;95556.59;;;21.92;78.18
13029;BME280;6581;42.662;23.402;2023-07-13T02:51:06;95548.03;;;21.81;78.74
13029;BME280;6581;42.662;23.402;2023-07-13T02:53:34;95555.44;;;21.77;78.55
13029;BME280;6581;42.662;23.402;2023-07-13T02:56:02;95560.16;;;21.73;78.68
13029;BME280;6581;42.662;23.402;2023-07-13T02:58:30;95556.88;;;21.65;80.17
13029;BME280;6581;42.662;23.402;2023-07-13T03:00:57;95556.19;;;21.61;81.11
13029;BME280;6581;42.662;23.402;2023-07-13T03:03:26;95556.56;;;21.63;81.81
13029;BME280;6581;42.662;23.402;2023-07-13T03:06:01;95557.63;;;21.65;82.89
13029;BME280;6581;42.662;23.402;2023-07-13T03:08:34;95562.63;;;21.67;83.39
13029;BME280;6581;42.662;23.402;2023-07-13T03:11:02;95556.97;;;21.61;84.64
13029;BME280;6581;42.662;23.402;2023-07-13T03:13:33;95554.34;;;21.58;85.69
13029;BME280;6581;42.662;23.402;2023-07-13T03:16:02;95560.16;;;21.56;86.14
13029;BME280;6581;42.662;23.402;2023-07-13T03:18:29;95559.91;;;21.51;87.18
13029;BME280;6581;42.662;23.402;2023-07-13T03:21:02;95564.69;;;21.59;87.45
13029;BME280;6581;42.662;23.402;2023-07-13T03:23:29;95558.13;;;21.60;87.14
13029;BME280;6581;42.662;23.402;2023-07-13T03:26:03;95561.25;;;21.59;87.12
13029;BME280;6581;42.662;23.402;2023-07-13T03:28:32;95559.75;;;21.58;88.26
13029;BME280;6581;42.662;23.402;2023-07-13T03:31:00;95556.72;;;21.56;88.85
13029;BME280;6581;42.662;23.402;2023-07-13T03:33:30;95565.91;;;21.58;89.54
13029;BME280;6581;42.662;23.402;2023-07-13T03:35:57;95564.88;;;21.52;91.70
13029;BME280;6581;42.662;23.402;2023-07-13T03:38:26;95563.72;;;21.53;90.72
13029;BME280;6581;42.662;23.402;2023-07-13T03:40:54;95568.25;;;21.56;92.30
13029;BME280;6581;42.662;23.402;2023-07-13T03:43:21;95568.59;;;21.58;92.75
13029;BME280;6581;42.662;23.402;2023-07-13T03:45:48;95563.94;;;21.59;89.10
13029;BME280;6581;42.662;23.402;2023-07-13T03:48:16;95555.28;;;21.67;88.19
13029;BME280;6581;42.662;23.402;2023-07-13T03:50:43;95560.91;;;21.73;86.33
13029;BME280;6581;42.662;23.402;2023-07-13T03:53:10;95557.53;;;21.85;86.66
13029;BME280;6581;42.662;23.402;2023-07-13T03:55:39;95562.84;;;21.89;87.57
13029;BME280;6581;42.662;23.402;2023-07-13T03:58:27;95563.03;;;21.98;86.30
13029;BME280;6581;42.662;23.402;2023-07-13T04:01:02;95563.28;;;22.03;87.08
13029;BME280;6581;42.662;23.402;2023-07-13T04:03:29;95564.69;;;22.08;86.43
13029;BME280;6581;42.662;23.402;2023-07-13T04:05:59;95568.72;;;22.16;87.61
13029;BME280;6581;42.662;23.402;2023-07-13T04:08:30;95573.84;;;22.27;87.07
13029;BME280;6581;42.662;23.402;2023-07-13T04:11:00;95563.13;;;22.23;83.79
13029;BME280;6581;42.662;23.402;2023-07-13T04:13:28;95564.88;;;22.30;81.65
13029;BME280;6581;42.662;23.402;2023-07-13T04:15:55;95565.13;;;22.35;77.85
13029;BME280;6581;42.662;23.402;2023-07-13T04:18:22;95568.72;;;22.45;78.25
13029;BME280;6581;42.662;23.402;2023-07-13T04:20:50;95568.22;;;22.50;81.16
13029;BME280;6581;42.662;23.402;2023-07-13T04:23:17;95577.63;;;22.58;81.64
13029;BME280;6581;42.662;23.402;2023-07-13T04:25:45;95577.19;;;22.60;79.29
13029;BME280;6581;42.662;23.402;2023-07-13T04:28:13;95582.72;;;22.69;80.75
13029;BME280;6581;42.662;23.402;2023-07-13T04:30:40;95586.34;;;22.78;78.78
13029;BME280;6581;42.662;23.402;2023-07-13T04:33:07;95583.97;;;22.80;75.49
13029;BME280;6581;42.662;23.402;2023-07-13T04:35:36;95582.56;;;22.76;75.10
13029;BME280;6581;42.662;23.402;2023-07-13T04:38:03;95590.03;;;22.84;75.64
13029;BME280;6581;42.662;23.402;2023-07-13T04:40:30;95594.25;;;22.85;76.67
13029;BME280;6581;42.662;23.402;2023-07-13T04:42:57;95587.97;;;22.88;77.08
13029;BME280;6581;42.662;23.402;2023-07-13T04:45:26;95593.38;;;22.88;77.20
13029;BME280;6581;42.662;23.402;2023-07-13T04:47:54;95596.97;;;22.98;77.00
13029;BME280;6581;42.662;23.402;2023-07-13T04:50:21;95595.16;;;23.08;75.94
13029;BME280;6581;42.662;23.402;2023-07-13T04:52:50;95595.16;;;23.08;76.99
13029;BME280;6581;42.662;23.402;2023-07-13T04:55:17;95594.72;;;23.09;76.38
13029;BME280;6581;42.662;23.402;2023-07-13T04:57:45;95600.91;;;23.22;75.72
13029;BME280;6581;42.662;23.402;2023-07-13T05:00:13;95601.00;;;23.19;74.69
13029;BME280;6581;42.662;23.402;2023-07-13T05:02:44;95599.91;;;23.16;74.26
13029;BME280;6581;42.662;23.402;2023-07-13T05:05:11;95609.22;;;23.28;74.30
13029;BME280;6581;42.662;23.402;2023-07-13T05:07:39;95610.53;;;23.36;73.61
13029;BME280;6581;42.662;23.402;2023-07-13T05:10:07;95611.28;;;23.36;72.65
13029;BME280;6581;42.662;23.402;2023-07-13T05:12:36;95610.78;;;23.54;72.67
13029;BME280;6581;42.662;23.402;2023-07-13T05:15:04;95613.25;;;23.61;71.83
13029;BME280;6581;42.662;23.402;2023-07-13T05:17:31;95617.69;;;23.68;71.40
13029;BME280;6581;42.662;23.402;2023-07-13T05:19:59;95616.38;;;23.72;72.33
13029;BME280;6581;42.662;23.402;2023-07-13T05:22:26;95617.66;;;23.80;72.14
13029;BME280;6581;42.662;23.402;2023-07-13T05:24:53;95618.53;;;23.90;71.81
13029;BME280;6581;42.662;23.402;2023-07-13T05:27:20;95619.03;;;23.98;71.25
13029;BME280;6581;42.662;23.402;2023-07-13T05:29:48;95626.94;;;24.05;71.02
13029;BME280;6581;42.662;23.402;2023-07-13T05:32:17;95614.94;;;24.06;70.87
13029;BME280;6581;42.662;23.402;2023-07-13T05:34:44;95615.69;;;24.19;69.89
13029;BME280;6581;42.662;23.402;2023-07-13T05:37:13;95617.94;;;24.08;70.81
13029;BME280;6581;42.662;23.402;2023-07-13T05:39:40;95616.63;;;24.25;70.24
13029;BME280;6581;42.662;23.402;2023-07-13T05:42:07;95621.72;;;24.23;69.83
13029;BME280;6581;42.662;23.402;2023-07-13T05:44:34;95628.53;;;24.27;69.83
13029;BME280;6581;42.662;23.402;2023-07-13T05:47:01;95626.09;;;24.42;69.62
13029;BME280;6581;42.662;23.402;2023-07-13T05:49:29;95625.28;;;24.54;68.95
13029;BME280;6581;42.662;23.402;2023-07-13T05:51:56;95626.19;;;24.73;69.37
13029;BME280;6581;42.662;23.402;2023-07-13T05:54:26;95626.13;;;24.86;69.92
13029;BME280;6581;42.662;23.402;2023-07-13T05:56:53;95623.94;;;24.93;69.52
13029;BME280;6581;42.662;23.402;2023-07-13T05:59:20;95621.91;;;24.85;68.53
13029;BME280;6581;42.662;23.402;2023-07-13T06:01:47;95627.16;;;25.01;69.06
13029;BME280;6581;42.662;23.402;2023-07-13T06:04:14;95623.03;;;25.18;70.27
13029;BME280;6581;42.662;23.402;2023-07-13T06:06:41;95619.31;;;25.25;70.17
13029;BME280;6581;42.662;23.402;2023-07-13T06:09:09;95612.03;;;25.43;68.34
13029;BME280;6581;42.662;23.402;2023-07-13T06:11:38;95610.06;;;25.53;66.44
13029;BME280;6581;42.662;23.402;2023-07-13T06:14:05;95602.28;;;25.55;64.92
13029;BME280;6581;42.662;23.402;2023-07-13T06:16:32;95615.47;;;25.75;62.88
13029;BME280;6581;42.662;23.402;2023-07-13T06:18:59;95616.97;;;25.85;61.28
13029;BME280;6581;42.662;23.402;2023-07-13T06:21:26;95621.84;;;25.99;60.79
13029;BME280;6581;42.662;23.402;2023-07-13T06:23:53;95622.63;;;26.09;62.61
13029;BME280;6581;42.662;23.402;2023-07-13T06:26:21;95616.91;;;26.16;63.14
13029;BME280;6581;42.662;23.402;2023-07-13T06:28:49;95613.16;;;26.22;64.52
13029;BME280;6581;42.662;23.402;2023-07-13T06:31:16;95613.31;;;26.37;62.19
13029;BME280;6581;42.662;23.402;2023-07-13T06:33:43;95611.38;;;26.46;61.63
13029;BME280;6581;42.662;23.402;2023-07-13T06:36:10;95615.75;;;26.44;63.10
13029;BME280;6581;42.662;23.402;2023-07-13T06:38:38;95613.03;;;26.53;57.85
13029;BME280;6581;42.662;23.402;2023-07-13T06:41:06;95614.69;;;26.60;56.60
13029;BME280;6581;42.662;23.402;2023-07-13T06:43:33;95614.38;;;26.76;57.62
13029;BME280;6581;42.662;23.402;2023-07-13T06:46:02;95615.28;;;26.82;60.53
13029;BME280;6581;42.662;23.402;2023-07-13T06:48:29;95616.81;;;26.92;60.03
13029;BME280;6581;42.662;23.402;2023-07-13T06:50:57;95605.75;;;27.05;60.18
13029;BME280;6581;42.662;23.402;2023-07-13T06:53:24;95605.84;;;27.19;58.89
13029;BME280;6581;42.662;23.402;2023-07-13T06:55:51;95608.69;;;27.34;57.44
13029;BME280;6581;42.662;23.402;2023-07-13T06:58:18;95604.50;;;27.24;59.52
13029;BME280;6581;42.662;23.402;2023-07-13T07:00:45;95618.69;;;27.19;59.28
13029;BME280;6581;42.662;23.402;2023-07-13T07:03:14;95604.91;;;27.31;58.13
13029;BME280;6581;42.662;23.402;2023-07-13T07:05:43;95605.94;;;27.52;58.97
13029;BME280;6581;42.662;23.402;2023-07-13T07:08:10;95620.88;;;27.57;56.24
13029;BME280;6581;42.662;23.402;2023-07-13T07:10:37;95620.53;;;27.64;58.32
13029;BME280;6581;42.662;23.402;2023-07-13T07:13:04;95619.75;;;27.96;54.29
13029;BME280;6581;42.662;23.402;2023-07-13T07:15:31;95616.97;;;29.06;50.32
13029;BME280;6581;42.662;23.402;2023-07-13T07:17:58;95609.59;;;31.12;46.03
13029;BME280;6581;42.662;23.402;2023-07-13T07:20:27;95615.34;;;32.84;40.91
13029;BME280;6581;42.662;23.402;2023-07-13T07:22:56;95624.00;;;34.44;36.43
13029;BME280;6581;42.662;23.402;2023-07-13T07:25:23;95624.81;;;36.16;33.53
13029;BME280;6581;42.662;23.402;2023-07-13T07:27:50;95618.53;;;37.34;30.95
13029;BME280;6581;42.662;23.402;2023-07-13T07:30:17;95625.94;;;38.15;29.15
13029;BME280;6581;42.662;23.402;2023-07-13T07:32:44;95636.66;;;38.32;28.46
13029;BME280;6581;42.662;23.402;2023-07-13T07:35:11;95625.47;;;38.90;27.83
13029;BME280;6581;42.662;23.402;2023-07-13T07:37:40;95626.56;;;39.63;26.69
13029;BME280;6581;42.662;23.402;2023-07-13T07:40:08;95614.56;;;40.53;25.23
13029;BME280;6581;42.662;23.402;2023-07-13T07:42:35;95620.75;;;41.25;25.50
13029;BME280;6581;42.662;23.402;2023-07-13T07:45:02;95616.84;;;41.05;25.04
13029;BME280;6581;42.662;23.402;2023-07-13T07:47:29;95610.38;;;41.10;24.86
13029;BME280;6581;42.662;23.402;2023-07-13T07:49:56;95616.56;;;41.62;24.18
13029;BME280;6581;42.662;23.402;2023-07-13T07:52:23;95598.22;;;41.74;23.78
13029;BME280;6581;42.662;23.402;2023-07-13T07:54:54;95612.34;;;42.54;23.69
13029;BME280;6581;42.662;23.402;2023-07-13T07:57:21;95622.06;;;42.93;22.64
13029;BME280;6581;42.662;23.402;2023-07-13T07:59:48;95618.22;;;42.26;22.67
13029;BME280;6581;42.662;23.402;2023-07-13T08:02:15;95606.91;;;42.16;22.73
13029;BME280;6581;42.662;23.402;2023-07-13T08:04:42;95609.50;;;42.77;22.12
13029;BME280;6581;42.662;23.402;2023-07-13T08:07:10;95606.03;;;43.34;21.30
13029;BME280;6581;42.662;23.402;2023-07-13T08:09:37;95609.38;;;43.32;21.89
13029;BME280;6581;42.662;23.402;2023-07-13T08:12:06;95590.78;;;42.70;22.14
13029;BME280;6581;42.662;23.402;2023-07-13T08:14:34;95592.06;;;43.09;21.70
13029;BME280;6581;42.662;23.402;2023-07-13T08:17:02;95590.97;;;42.64;22.30
13029;BME280;6581;42.662;23.402;2023-07-13T08:19:29;95595.16;;;43.20;21.85
13029;BME280;6581;42.662;23.402;2023-07-13T08:21:57;95586.38;;;42.99;21.48
13029;BME280;6581;42.662;23.402;2023-07-13T08:24:24;95581.66;;;42.29;22.16
13029;BME280;6581;42.662;23.402;2023-07-13T08:26:51;95579.28;;;41.20;23.79
13029;BME280;6581;42.662;23.402;2023-07-13T08:29:20;95575.22;;;39.98;25.03
13029;BME280;6581;42.662;23.402;2023-07-13T08:31:47;95579.31;;;38.93;26.00
13029;BME280;6581;42.662;23.402;2023-07-13T08:34:14;95570.69;;;38.23;26.46
13029;BME280;6581;42.662;23.402;2023-07-13T08:36:41;95557.13;;;37.99;27.47
13029;BME280;6581;42.662;23.402;2023-07-13T08:39:08;95556.97;;;37.20;28.18
13029;BME280;6581;42.662;23.402;2023-07-13T08:41:35;95557.47;;;37.18;27.92
13029;BME280;6581;42.662;23.402;2023-07-13T08:44:11;95549.53;;;36.96;29.52
13029;BME280;6581;42.662;23.402;2023-07-13T08:46:44;95550.75;;;36.63;29.89
13029;BME280;6581;42.662;23.402;2023-07-13T08:49:15;95548.75;;;36.02;31.42
13029;BME280;6581;42.662;23.402;2023-07-13T08:51:44;95545.34;;;35.06;31.70
13029;BME280;6581;42.662;23.402;2023-07-13T08:54:19;95550.56;;;34.80;33.12
13029;BME280;6581;42.662;23.402;2023-07-13T08:56:48;95551.84;;;34.21;33.58
13029;BME280;6581;42.662;23.402;2023-07-13T08:59:21;95550.44;;;33.93;36.85
13029;BME280;6581;42.662;23.402;2023-07-13T09:02:00;95552.97;;;33.74;34.95
13029;BME280;6581;42.662;23.402;2023-07-13T09:04:34;95560.25;;;33.71;34.93
13029;BME280;6581;42.662;23.402;2023-07-13T09:07:07;95563.97;;;33.74;36.35
13029;BME280;6581;42.662;23.402;2023-07-13T09:10:00;95566.72;;;33.63;38.41
13029;BME280;6581;42.662;23.402;2023-07-13T09:12:35;95575.72;;;33.52;38.48
13029;BME280;6581;42.662;23.402;2023-07-13T09:15:26;95576.75;;;33.27;36.46
13029;BME280;6581;42.662;23.402;2023-07-13T09:18:01;95578.19;;;33.00;39.11
13029;BME280;6581;42.662;23.402;2023-07-13T09:20:31;95575.19;;;32.92;36.68
13029;BME280;6581;42.662;23.402;2023-07-13T09:23:04;95569.97;;;32.94;36.83
13029;BME280;6581;42.662;23.402;2023-07-13T09:25:36;95569.47;;;33.07;37.30
13029;BME280;6581;42.662;23.402;2023-07-13T09:28:11;95571.50;;;33.29;38.02
13029;BME280;6581;42.662;23.402;2023-07-13T09:30:45;95577.00;;;33.40;36.74
13029;BME280;6581;42.662;23.402;2023-07-13T09:33:14;95570.00;;;33.17;36.61
13029;BME280;6581;42.662;23.402;2023-07-13T09:35:41;95568.00;;;33.12;36.23
13029;BME280;6581;42.662;23.402;2023-07-13T09:38:13;95572.75;;;33.39;36.67
13029;BME280;6581;42.662;23.402;2023-07-13T09:40:49;95562.75;;;33.53;39.61
13029;BME280;6581;42.662;23.402;2023-07-13T09:43:21;95564.25;;;33.54;37.92
13029;BME280;6581;42.662;23.402;2023-07-13T09:45:48;95565.22;;;33.62;37.67
13029;BME280;6581;42.662;23.402;2023-07-13T09:48:17;95560.00;;;33.69;35.92
13029;BME280;6581;42.662;23.402;2023-07-13T09:50:45;95555.25;;;33.75;35.42
13029;BME280;6581;42.662;23.402;2023-07-13T09:53:14;95548.50;;;33.76;34.77
13029;BME280;6581;42.662;23.402;2023-07-13T09:55:43;95535.50;;;33.77;36.29
13029;BME280;6581;42.662;23.402;2023-07-13T09:58:13;95538.00;;;33.75;35.64
13029;BME280;6581;42.662;23.402;2023-07-13T10:00:41;95529.97;;;33.82;35.52
13029;BME280;6581;42.662;23.402;2023-07-13T10:03:19;95537.69;;;33.95;34.82
13029;BME280;6581;42.662;23.402;2023-07-13T10:05:48;95531.19;;;33.93;34.45
13029;BME280;6581;42.662;23.402;2023-07-13T10:08:18;95522.00;;;33.84;33.84
13029;BME280;6581;42.662;23.402;2023-07-13T10:10:46;95518.97;;;33.82;34.75
13029;BME280;6581;42.662;23.402;2023-07-13T10:13:29;95512.78;;;33.71;34.79
13029;BME280;6581;42.662;23.402;2023-07-13T10:15:58;95514.75;;;33.81;35.93
13029;BME280;6581;42.662;23.402;2023-07-13T10:18:28;95524.94;;;33.92;35.00
13029;BME280;6581;42.662;23.402;2023-07-13T10:21:08;95513.75;;;33.84;34.72
13029;BME280;6581;42.662;23.402;2023-07-13T10:23:36;95521.22;;;33.95;35.20
13029;BME280;6581;42.662;23.402;2023-07-13T10:26:12;95520.00;;;33.79;33.77
13029;BME280;6581;42.662;23.402;2023-07-13T10:28:40;95508.94;;;34.02;33.73
13029;BME280;6581;42.662;23.402;2023-07-13T10:31:13;95507.19;;;34.04;33.26
13029;BME280;6581;42.662;23.402;2023-07-13T10:33:43;95500.13;;;34.14;35.69
13029;BME280;6581;42.662;23.402;2023-07-13T10:36:14;95493.06;;;34.30;34.04
13029;BME280;6581;42.662;23.402;2023-07-13T10:38:43;95487.84;;;34.26;32.16
13029;BME280;6581;42.662;23.402;2023-07-13T10:41:16;95488.78;;;34.35;32.55
13029;BME280;6581;42.662;23.402;2023-07-13T10:43:46;95488.13;;;34.64;32.80
13029;BME280;6581;42.662;23.402;2023-07-13T10:46:18;95488.16;;;34.58;33.41
13029;BME280;6581;42.662;23.402;2023-07-13T10:48:49;95484.72;;;34.47;33.22
13029;BME280;6581;42.662;23.402;2023-07-13T10:51:19;95479.50;;;34.43;34.59
13029;BME280;6581;42.662;23.402;2023-07-13T10:54:11;95471.94;;;34.55;32.59
13029;BME280;6581;42.662;23.402;2023-07-13T10:56:42;95462.72;;;34.47;34.01
13029;BME280;6581;42.662;23.402;2023-07-13T10:59:12;95455.47;;;34.49;33.48
13029;BME280;6581;42.662;23.402;2023-07-13T11:01:50;95469.19;;;34.55;32.44
13029;BME280;6581;42.662;23.402;2023-07-13T11:04:22;95454.53;;;34.41;34.15
13029;BME280;6581;42.662;23.402;2023-07-13T11:06:56;95456.25;;;34.44;30.68
13029;BME280;6581;42.662;23.402;2023-07-13T11:09:36;95458.91;;;34.55;26.30
13029;BME280;6581;42.662;23.402;2023-07-13T11:12:08;95458.16;;;34.55;26.62
13029;BME280;6581;42.662;23.402;2023-07-13T11:14:44;95450.13;;;34.57;26.41
13029;BME280;6581;42.662;23.402;2023-07-13T11:17:37;95437.03;;;34.74;25.92
13029;BME280;6581;42.662;23.402;2023-07-13T11:20:39;95433.63;;;34.92;28.75
13029;BME280;6581;42.662;23.402;2023-07-13T11:23:15;95444.91;;;34.53;33.06
13029;BME280;6581;42.662;23.402;2023-07-13T11:25:44;95429.56;;;34.34;33.39
13029;BME280;6581;42.662;23.402;2023-07-13T11:28:16;95421.22;;;34.45;32.13
13029;BME280;6581;42.662;23.402;2023-07-13T11:30:47;95431.13;;;34.59;28.26
13029;BME280;6581;42.662;23.402;2023-07-13T11:33:17;95427.88;;;34.90;29.60
13029;BME280;6581;42.662;23.402;2023-07-13T11:35:52;95426.50;;;35.02;24.73
13029;BME280;6581;42.662;23.402;2023-07-13T11:38:22;95423.16;;;35.15;25.17
13029;BME280;6581;42.662;23.402;2023-07-13T11:40:54;95419.56;;;35.26;24.41
13029;BME280;6581;42.662;23.402;2023-07-13T11:43:22;95421.66;;;35.38;24.79
13029;BME280;6581;42.662;23.402;2023-07-13T11:45:50;95427.66;;;35.42;22.93
13029;BME280;6581;42.662;23.402;2023-07-13T11:48:23;95419.59;;;35.44;24.07
13029;BME280;6581;42.662;23.402;2023-07-13T11:50:58;95421.19;;;35.58;24.38
13029;BME280;6581;42.662;23.402;2023-07-13T11:53:44;95415.91;;;35.61;23.57
13029;BME280;6581;42.662;23.402;2023-07-13T11:56:12;95410.03;;;35.51;25.04
13029;BME280;6581;42.662;23.402;2023-07-13T11:58:40;95405.91;;;35.57;25.05
13029;BME280;6581;42.662;23.402;2023-07-13T12:01:17;95403.75;;;35.50;26.16
13029;BME280;6581;42.662;23.402;2023-07-13T12:03:45;95403.06;;;35.44;25.07
13029;BME280;6581;42.662;23.402;2023-07-13T12:06:25;95391.63;;;35.59;26.37
13029;BME280;6581;42.662;23.402;2023-07-13T12:08:56;95396.75;;;35.74;25.66
13029;BME280;6581;42.662;23.402;2023-07-13T12:11:24;95388.53;;;35.87;26.14
13029;BME280;6581;42.662;23.402;2023-07-13T12:13:51;95389.22;;;35.93;25.12
13029;BME280;6581;42.662;23.402;2023-07-13T12:16:24;95385.09;;;35.99;26.12
13029;BME280;6581;42.662;23.402;2023-07-13T12:18:53;95392.66;;;36.18;25.57
13029;BME280;6581;42.662;23.402;2023-07-13T12:21:29;95386.38;;;36.17;25.47
13029;BME280;6581;42.662;23.402;2023-07-13T12:23:56;95380.56;;;36.02;24.71
13029;BME280;6581;42.662;23.402;2023-07-13T12:26:24;95372.38;;;35.96;25.27
13029;BME280;6581;42.662;23.402;2023-07-13T12:28:53;95362.69;;;35.90;25.59
13029;BME280;6581;42.662;23.402;2023-07-13T12:31:34;95365.06;;;35.99;24.82
13029;BME280;6581;42.662;23.402;2023-07-13T12:34:05;95361.13;;;36.13;25.27
13029;BME280;6581;42.662;23.402;2023-07-13T12:36:37;95359.59;;;36.31;25.76
13029;BME280;6581;42.662;23.402;2023-07-13T12:39:13;95358.38;;;36.45;25.76
13029;BME280;6581;42.662;23.402;2023-07-13T12:41:41;95354.22;;;36.38;23.94
13029;BME280;6581;42.662;23.402;2023-07-13T12:44:11;95349.13;;;36.42;23.69
13029;BME280;6581;42.662;23.402;2023-07-13T12:46:39;95339.81;;;36.46;25.12
13029;BME280;6581;42.662;23.402;2023-07-13T12:49:07;95336.38;;;36.39;27.92
13029;BME280;6581;42.662;23.402;2023-07-13T12:51:36;95342.31;;;36.30;27.24
13029;BME280;6581;42.662;23.402;2023-07-13T12:54:13;95333.47;;;36.19;26.88
13029;BME280;6581;42.662;23.402;2023-07-13T12:56:42;95336.94;;;36.38;27.16
13029;BME280;6581;42.662;23.402;2023-07-13T12:59:16;95336.72;;;36.49;26.36
13029;BME280;6581;42.662;23.402;2023-07-13T13:01:46;95333.69;;;36.53;26.59
13029;BME280;6581;42.662;23.402;2023-07-13T13:04:15;95334.88;;;36.25;27.93
13029;BME280;6581;42.662;23.402;2023-07-13T13:06:44;95328.84;;;36.40;28.35
13029;BME280;6581;42.662;23.402;2023-07-13T13:09:13;95315.09;;;36.53;28.39
13029;BME280;6581;42.662;23.402;2023-07-13T13:11:41;95311.81;;;36.55;27.18